sensor_id;sensor_type;location;lat;lon;timestamp;temperature;humidity
45044;DHT22;30784;48.490;9.688;2023-07-16T00:01:52;24.20;60.00
45044;DHT22;30784;48.490;9.688;2023-07-16T00:04:17;24.20;59.80
45044;DHT22;30784;48.490;9.688;2023-07-16T00:06:43;24.10;59.70
45044;DHT22;30784;48.490;9.688;2023-07-16T00:09:08;24.10;59.80
45044;DHT22;30784;48.490;9.688;2023-07-16T00:11:34;24.10;59.90
45044;DHT22;30784;48.490;9.688;2023-07-16T00:13:59;24.00;59.90
45044;DHT22;30784;48.490;9.688;2023-07-16T00:16:27;24.00;60.00
45044;DHT22;30784;48.490;9.688;2023-07-16T00:18:52;24.00;60.40
45044;DHT22;30784;48.490;9.688;2023-07-16T00:21:18;24.00;60.50
45044;DHT22;30784;48.490;9.688;2023-07-16T00:23:44;23.90;60.60
45044;DHT22;30784;48.490;9.688;2023-07-16T00:26:09;23.90;61.20
45044;DHT22;30784;48.490;9.688;2023-07-16T00:28:35;23.90;60.80
45044;DHT22;30784;48.490;9.688;2023-07-16T00:31:01;23.90;60.70
45044;DHT22;30784;48.490;9.688;2023-07-16T00:33:26;24.00;61.00
45044;DHT22;30784;48.490;9.688;2023-07-16T00:35:52;23.90;60.90
45044;DHT22;30784;48.490;9.688;2023-07-16T00:38:18;23.90;60.90
45044;DHT22;30784;48.490;9.688;2023-07-16T00:40:44;23.90;61.00
45044;DHT22;30784;48.490;9.688;2023-07-16T00:43:10;23.90;60.90
45044;DHT22;30784;48.490;9.688;2023-07-16T00:45:36;23.90;60.80
45044;DHT22;30784;48.490;9.688;2023-07-16T00:48:02;23.90;60.80
45044;DHT22;30784;48.490;9.688;2023-07-16T00:50:29;23.90;60.90
45044;DHT22;30784;48.490;9.688;2023-07-16T00:53:02;23.80;60.90
45044;DHT22;30784;48.490;9.688;2023-07-16T00:55:29;23.80;60.70
45044;DHT22;30784;48.490;9.688;2023-07-16T00:57:57;23.80;60.60
45044;DHT22;30784;48.490;9.688;2023-07-16T01:00:25;23.70;60.50
45044;DHT22;30784;48.490;9.688;2023-07-16T01:02:51;23.70;60.30
45044;DHT22;30784;48.490;9.688;2023-07-16T01:05:17;23.70;60.40
45044;DHT22;30784;48.490;9.688;2023-07-16T01:07:53;23.60;60.30
45044;DHT22;30784;48.490;9.688;2023-07-16T01:10:21;23.50;60.00
45044;DHT22;30784;48.490;9.688;2023-07-16T01:12:47;23.50;59.90
45044;DHT22;30784;48.490;9.688;2023-07-16T01:15:14;23.50;59.80
45044;DHT22;30784;48.490;9.688;2023-07-16T01:17:39;23.40;60.40
45044;DHT22;30784;48.490;9.688;2023-07-16T01:20:05;23.40;59.70
45044;DHT22;30784;48.490;9.688;2023-07-16T01:28:16;23.20;59.70
45044;DHT22;30784;48.490;9.688;2023-07-16T01:30:47;23.10;59.60
45044;DHT22;30784;48.490;9.688;2023-07-16T01:33:13;23.10;59.60
45044;DHT22;30784;48.490;9.688;2023-07-16T01:35:40;23.00;59.70
45044;DHT22;30784;48.490;9.688;2023-07-16T01:38:09;23.00;59.80
45044;DHT22;30784;48.490;9.688;2023-07-16T01:40:35;23.00;59.70
45044;DHT22;30784;48.490;9.688;2023-07-16T01:43:00;22.90;59.60
45044;DHT22;30784;48.490;9.688;2023-07-16T01:45:26;22.90;59.70
45044;DHT22;30784;48.490;9.688;2023-07-16T01:50:55;22.80;59.70
45044;DHT22;30784;48.490;9.688;2023-07-16T01:53:20;22.80;59.50
45044;DHT22;30784;48.490;9.688;2023-07-16T01:55:46;22.80;59.50
45044;DHT22;30784;48.490;9.688;2023-07-16T01:58:12;22.80;59.90
45044;DHT22;30784;48.490;9.688;2023-07-16T02:00:37;22.70;59.40
45044;DHT22;30784;48.490;9.688;2023-07-16T02:03:03;22.70;59.60
45044;DHT22;30784;48.490;9.688;2023-07-16T02:05:28;22.70;59.80
45044;DHT22;30784;48.490;9.688;2023-07-16T02:07:54;22.70;59.80
45044;DHT22;30784;48.490;9.688;2023-07-16T02:10:19;22.70;59.90
45044;DHT22;30784;48.490;9.688;2023-07-16T02:12:45;22.70;59.70
45044;DHT22;30784;48.490;9.688;2023-07-16T02:15:11;22.60;59.20
45044;DHT22;30784;48.490;9.688;2023-07-16T02:17:36;22.70;59.00
45044;DHT22;30784;48.490;9.688;2023-07-16T02:20:02;22.60;58.60
45044;DHT22;30784;48.490;9.688;2023-07-16T02:22:31;22.60;58.40
45044;DHT22;30784;48.490;9.688;2023-07-16T02:24:56;22.60;58.10
45044;DHT22;30784;48.490;9.688;2023-07-16T02:27:22;22.50;58.10
45044;DHT22;30784;48.490;9.688;2023-07-16T02:29:47;22.50;57.90
45044;DHT22;30784;48.490;9.688;2023-07-16T02:32:13;22.50;57.90
45044;DHT22;30784;48.490;9.688;2023-07-16T02:34:39;22.50;57.60
45044;DHT22;30784;48.490;9.688;2023-07-16T02:37:04;22.40;57.50
45044;DHT22;30784;48.490;9.688;2023-07-16T02:39:30;22.40;57.40
45044;DHT22;30784;48.490;9.688;2023-07-16T02:41:55;22.40;57.40
45044;DHT22;30784;48.490;9.688;2023-07-16T02:44:21;22.30;57.30
45044;DHT22;30784;48.490;9.688;2023-07-16T02:46:46;22.30;57.20
45044;DHT22;30784;48.490;9.688;2023-07-16T02:49:12;22.30;57.20
45044;DHT22;30784;48.490;9.688;2023-07-16T02:51:37;22.20;56.90
45044;DHT22;30784;48.490;9.688;2023-07-16T02:54:03;22.20;56.90
45044;DHT22;30784;48.490;9.688;2023-07-16T02:56:28;22.10;56.90
45044;DHT22;30784;48.490;9.688;2023-07-16T02:58:54;22.00;56.90
45044;DHT22;30784;48.490;9.688;2023-07-16T03:01:19;21.90;56.90
45044;DHT22;30784;48.490;9.688;2023-07-16T03:03:45;21.90;57.00
45044;DHT22;30784;48.490;9.688;2023-07-16T03:06:10;21.80;57.20
45044;DHT22;30784;48.490;9.688;2023-07-16T03:08:36;21.80;57.30
45044;DHT22;30784;48.490;9.688;2023-07-16T03:11:01;21.80;57.50
45044;DHT22;30784;48.490;9.688;2023-07-16T03:13:27;21.80;57.60
45044;DHT22;30784;48.490;9.688;2023-07-16T03:15:53;21.70;57.60
45044;DHT22;30784;48.490;9.688;2023-07-16T03:18:19;21.70;57.70
45044;DHT22;30784;48.490;9.688;2023-07-16T03:20:44;21.70;57.50
45044;DHT22;30784;48.490;9.688;2023-07-16T03:23:10;21.70;57.60
45044;DHT22;30784;48.490;9.688;2023-07-16T03:25:36;21.70;58.30
45044;DHT22;30784;48.490;9.688;2023-07-16T03:28:01;21.70;57.80
45044;DHT22;30784;48.490;9.688;2023-07-16T03:30:27;21.70;58.00
45044;DHT22;30784;48.490;9.688;2023-07-16T03:32:52;21.60;58.20
45044;DHT22;30784;48.490;9.688;2023-07-16T03:35:18;21.60;58.10
45044;DHT22;30784;48.490;9.688;2023-07-16T03:37:44;21.60;58.20
45044;DHT22;30784;48.490;9.688;2023-07-16T03:40:17;21.60;58.20
45044;DHT22;30784;48.490;9.688;2023-07-16T03:42:43;21.60;58.80
45044;DHT22;30784;48.490;9.688;2023-07-16T03:45:10;21.60;58.20
45044;DHT22;30784;48.490;9.688;2023-07-16T03:47:36;21.60;58.00
45044;DHT22;30784;48.490;9.688;2023-07-16T03:50:02;21.60;58.10
45044;DHT22;30784;48.490;9.688;2023-07-16T03:52:28;21.60;58.20
45044;DHT22;30784;48.490;9.688;2023-07-16T03:54:54;21.50;58.10
45044;DHT22;30784;48.490;9.688;2023-07-16T03:57:20;21.50;58.00
45044;DHT22;30784;48.490;9.688;2023-07-16T03:59:45;21.50;58.30
45044;DHT22;30784;48.490;9.688;2023-07-16T04:02:11;21.50;58.40
45044;DHT22;30784;48.490;9.688;2023-07-16T04:04:36;21.50;58.60
45044;DHT22;30784;48.490;9.688;2023-07-16T04:07:02;21.50;58.60
45044;DHT22;30784;48.490;9.688;2023-07-16T04:09:27;21.40;58.70
45044;DHT22;30784;48.490;9.688;2023-07-16T04:11:53;21.40;58.90
45044;DHT22;30784;48.490;9.688;2023-07-16T04:14:18;21.30;58.80
45044;DHT22;30784;48.490;9.688;2023-07-16T04:16:44;21.30;58.90
45044;DHT22;30784;48.490;9.688;2023-07-16T04:19:09;21.30;59.00
45044;DHT22;30784;48.490;9.688;2023-07-16T04:21:35;21.20;59.10
45044;DHT22;30784;48.490;9.688;2023-07-16T04:24:02;21.20;59.20
45044;DHT22;30784;48.490;9.688;2023-07-16T04:26:28;21.20;59.40
45044;DHT22;30784;48.490;9.688;2023-07-16T04:28:54;21.20;59.40
45044;DHT22;30784;48.490;9.688;2023-07-16T04:31:19;21.20;59.40
45044;DHT22;30784;48.490;9.688;2023-07-16T04:33:45;21.20;59.60
45044;DHT22;30784;48.490;9.688;2023-07-16T04:36:11;21.10;59.50
45044;DHT22;30784;48.490;9.688;2023-07-16T04:38:36;21.20;59.60
45044;DHT22;30784;48.490;9.688;2023-07-16T04:41:02;21.20;59.60
45044;DHT22;30784;48.490;9.688;2023-07-16T04:43:28;21.20;59.60
45044;DHT22;30784;48.490;9.688;2023-07-16T04:45:53;21.20;59.60
45044;DHT22;30784;48.490;9.688;2023-07-16T04:48:19;21.20;59.60
45044;DHT22;30784;48.490;9.688;2023-07-16T04:50:44;21.20;59.80
45044;DHT22;30784;48.490;9.688;2023-07-16T04:53:10;21.10;59.90
45044;DHT22;30784;48.490;9.688;2023-07-16T04:55:37;21.10;60.00
45044;DHT22;30784;48.490;9.688;2023-07-16T04:58:02;21.10;60.10
45044;DHT22;30784;48.490;9.688;2023-07-16T05:00:28;21.10;60.20
45044;DHT22;30784;48.490;9.688;2023-07-16T05:02:53;21.10;60.30
45044;DHT22;30784;48.490;9.688;2023-07-16T05:05:19;21.00;60.20
45044;DHT22;30784;48.490;9.688;2023-07-16T05:07:44;21.00;60.40
45044;DHT22;30784;48.490;9.688;2023-07-16T05:10:10;21.00;60.50
45044;DHT22;30784;48.490;9.688;2023-07-16T05:12:36;21.00;60.50
45044;DHT22;30784;48.490;9.688;2023-07-16T05:15:02;21.00;60.70
45044;DHT22;30784;48.490;9.688;2023-07-16T05:17:27;21.00;60.50
45044;DHT22;30784;48.490;9.688;2023-07-16T05:19:53;21.00;60.70
45044;DHT22;30784;48.490;9.688;2023-07-16T05:22:18;21.00;60.80
45044;DHT22;30784;48.490;9.688;2023-07-16T05:24:44;21.00;60.70
45044;DHT22;30784;48.490;9.688;2023-07-16T05:27:10;21.00;60.70
45044;DHT22;30784;48.490;9.688;2023-07-16T05:29:35;21.00;60.60
45044;DHT22;30784;48.490;9.688;2023-07-16T05:32:01;21.00;60.70
45044;DHT22;30784;48.490;9.688;2023-07-16T05:34:26;21.00;60.80
45044;DHT22;30784;48.490;9.688;2023-07-16T05:36:55;21.00;60.90
45044;DHT22;30784;48.490;9.688;2023-07-16T05:39:21;21.10;60.60
45044;DHT22;30784;48.490;9.688;2023-07-16T05:41:47;21.10;60.90
45044;DHT22;30784;48.490;9.688;2023-07-16T05:44:13;21.10;61.00
45044;DHT22;30784;48.490;9.688;2023-07-16T05:46:38;21.20;60.90
45044;DHT22;30784;48.490;9.688;2023-07-16T05:49:04;21.20;60.80
45044;DHT22;30784;48.490;9.688;2023-07-16T05:51:30;21.20;60.60
45044;DHT22;30784;48.490;9.688;2023-07-16T05:53:55;21.30;60.50
45044;DHT22;30784;48.490;9.688;2023-07-16T05:56:21;21.30;60.50
45044;DHT22;30784;48.490;9.688;2023-07-16T05:58:46;21.30;60.50
45044;DHT22;30784;48.490;9.688;2023-07-16T06:01:12;21.30;60.40
45044;DHT22;30784;48.490;9.688;2023-07-16T06:03:37;21.30;60.40
45044;DHT22;30784;48.490;9.688;2023-07-16T06:06:03;21.30;60.20
45044;DHT22;30784;48.490;9.688;2023-07-16T06:08:28;21.30;60.30
45044;DHT22;30784;48.490;9.688;2023-07-16T06:10:54;21.30;60.10
45044;DHT22;30784;48.490;9.688;2023-07-16T06:13:20;21.30;60.20
45044;DHT22;30784;48.490;9.688;2023-07-16T06:15:47;21.40;59.90
45044;DHT22;30784;48.490;9.688;2023-07-16T06:18:12;21.40;59.70
45044;DHT22;30784;48.490;9.688;2023-07-16T06:20:38;21.40;59.70
45044;DHT22;30784;48.490;9.688;2023-07-16T06:23:04;21.40;59.50
45044;DHT22;30784;48.490;9.688;2023-07-16T06:25:30;21.40;59.40
45044;DHT22;30784;48.490;9.688;2023-07-16T06:27:55;21.40;59.30
45044;DHT22;30784;48.490;9.688;2023-07-16T06:30:21;21.40;59.30
45044;DHT22;30784;48.490;9.688;2023-07-16T06:32:46;21.40;59.30
45044;DHT22;30784;48.490;9.688;2023-07-16T06:35:12;21.40;59.20
45044;DHT22;30784;48.490;9.688;2023-07-16T06:37:37;21.40;58.90
45044;DHT22;30784;48.490;9.688;2023-07-16T06:40:03;21.50;58.80
45044;DHT22;30784;48.490;9.688;2023-07-16T06:42:29;21.50;58.70
45044;DHT22;30784;48.490;9.688;2023-07-16T06:44:54;21.50;58.80
45044;DHT22;30784;48.490;9.688;2023-07-16T06:47:20;21.50;58.80
45044;DHT22;30784;48.490;9.688;2023-07-16T06:49:46;21.50;58.60
45044;DHT22;30784;48.490;9.688;2023-07-16T06:52:23;21.50;58.50
45044;DHT22;30784;48.490;9.688;2023-07-16T06:54:55;21.50;58.60
45044;DHT22;30784;48.490;9.688;2023-07-16T06:57:22;21.60;58.20
45044;DHT22;30784;48.490;9.688;2023-07-16T06:59:47;21.60;58.20
45044;DHT22;30784;48.490;9.688;2023-07-16T07:02:13;21.50;57.70
45044;DHT22;30784;48.490;9.688;2023-07-16T07:04:38;21.50;57.70
45044;DHT22;30784;48.490;9.688;2023-07-16T07:07:04;21.40;57.90
45044;DHT22;30784;48.490;9.688;2023-07-16T07:09:30;21.50;58.10
45044;DHT22;30784;48.490;9.688;2023-07-16T07:11:55;21.50;57.80
45044;DHT22;30784;48.490;9.688;2023-07-16T07:14:21;21.50;57.90
45044;DHT22;30784;48.490;9.688;2023-07-16T07:16:46;21.50;57.70
45044;DHT22;30784;48.490;9.688;2023-07-16T07:19:12;21.50;57.60
45044;DHT22;30784;48.490;9.688;2023-07-16T07:21:37;21.50;57.40
45044;DHT22;30784;48.490;9.688;2023-07-16T07:24:03;21.50;57.30
45044;DHT22;30784;48.490;9.688;2023-07-16T07:26:29;21.60;57.00
45044;DHT22;30784;48.490;9.688;2023-07-16T07:28:54;21.60;58.00
45044;DHT22;30784;48.490;9.688;2023-07-16T07:31:20;21.70;57.10
45044;DHT22;30784;48.490;9.688;2023-07-16T07:33:45;21.70;57.10
45044;DHT22;30784;48.490;9.688;2023-07-16T07:36:11;21.70;57.10
45044;DHT22;30784;48.490;9.688;2023-07-16T07:38:36;21.80;56.80
45044;DHT22;30784;48.490;9.688;2023-07-16T07:41:02;21.80;56.90
45044;DHT22;30784;48.490;9.688;2023-07-16T07:43:29;21.90;56.70
45044;DHT22;30784;48.490;9.688;2023-07-16T07:45:55;22.00;56.30
45044;DHT22;30784;48.490;9.688;2023-07-16T07:48:20;22.10;56.20
45044;DHT22;30784;48.490;9.688;2023-07-16T07:50:47;22.10;56.00
45044;DHT22;30784;48.490;9.688;2023-07-16T07:53:12;22.20;56.20
45044;DHT22;30784;48.490;9.688;2023-07-16T07:55:39;22.30;55.80
45044;DHT22;30784;48.490;9.688;2023-07-16T07:58:05;22.40;55.70
45044;DHT22;30784;48.490;9.688;2023-07-16T08:00:30;22.50;55.70
45044;DHT22;30784;48.490;9.688;2023-07-16T08:02:56;22.50;55.40
45044;DHT22;30784;48.490;9.688;2023-07-16T08:05:22;22.60;55.20
45044;DHT22;30784;48.490;9.688;2023-07-16T08:07:47;22.60;55.00
45044;DHT22;30784;48.490;9.688;2023-07-16T08:10:13;22.60;54.90
45044;DHT22;30784;48.490;9.688;2023-07-16T08:12:38;22.60;55.00
45044;DHT22;30784;48.490;9.688;2023-07-16T08:15:04;22.70;54.90
45044;DHT22;30784;48.490;9.688;2023-07-16T08:17:32;22.70;54.40
45044;DHT22;30784;48.490;9.688;2023-07-16T08:19:58;22.70;54.90
45044;DHT22;30784;48.490;9.688;2023-07-16T08:22:23;22.70;54.00
45044;DHT22;30784;48.490;9.688;2023-07-16T08:24:51;22.70;54.10
45044;DHT22;30784;48.490;9.688;2023-07-16T08:27:17;22.80;53.90
45044;DHT22;30784;48.490;9.688;2023-07-16T08:29:44;22.80;54.10
45044;DHT22;30784;48.490;9.688;2023-07-16T08:32:09;22.90;54.00
45044;DHT22;30784;48.490;9.688;2023-07-16T08:34:35;23.00;53.90
45044;DHT22;30784;48.490;9.688;2023-07-16T08:37:00;23.00;53.80
45044;DHT22;30784;48.490;9.688;2023-07-16T08:39:26;23.10;53.30
45044;DHT22;30784;48.490;9.688;2023-07-16T08:41:52;23.10;53.50
45044;DHT22;30784;48.490;9.688;2023-07-16T08:44:17;23.20;53.50
45044;DHT22;30784;48.490;9.688;2023-07-16T08:46:43;23.30;53.70
45044;DHT22;30784;48.490;9.688;2023-07-16T08:49:11;23.40;53.70
45044;DHT22;30784;48.490;9.688;2023-07-16T08:51:37;23.50;53.70
45044;DHT22;30784;48.490;9.688;2023-07-16T08:54:04;23.60;53.40
45044;DHT22;30784;48.490;9.688;2023-07-16T08:56:30;23.70;53.60
45044;DHT22;30784;48.490;9.688;2023-07-16T08:58:55;23.90;52.90
45044;DHT22;30784;48.490;9.688;2023-07-16T09:01:21;24.00;53.80
45044;DHT22;30784;48.490;9.688;2023-07-16T09:03:47;24.20;56.70
45044;DHT22;30784;48.490;9.688;2023-07-16T09:06:13;24.20;52.40
45044;DHT22;30784;48.490;9.688;2023-07-16T09:11:05;24.40;51.40
45044;DHT22;30784;48.490;9.688;2023-07-16T09:13:30;24.50;51.30
45044;DHT22;30784;48.490;9.688;2023-07-16T09:15:57;24.60;50.70
45044;DHT22;30784;48.490;9.688;2023-07-16T09:18:27;24.70;50.10
45044;DHT22;30784;48.490;9.688;2023-07-16T09:20:57;24.80;50.10
45044;DHT22;30784;48.490;9.688;2023-07-16T09:23:26;24.80;49.70
45044;DHT22;30784;48.490;9.688;2023-07-16T09:25:53;24.80;49.80
45044;DHT22;30784;48.490;9.688;2023-07-16T09:28:20;24.80;48.90
45044;DHT22;30784;48.490;9.688;2023-07-16T09:30:47;24.90;49.50
45044;DHT22;30784;48.490;9.688;2023-07-16T09:33:17;24.90;50.10
45044;DHT22;30784;48.490;9.688;2023-07-16T09:35:44;25.00;48.90
45044;DHT22;30784;48.490;9.688;2023-07-16T09:38:10;25.00;49.00
45044;DHT22;30784;48.490;9.688;2023-07-16T09:40:37;25.00;48.70
45044;DHT22;30784;48.490;9.688;2023-07-16T09:43:03;25.10;48.80
45044;DHT22;30784;48.490;9.688;2023-07-16T09:45:30;25.20;48.20
45044;DHT22;30784;48.490;9.688;2023-07-16T09:47:55;25.20;48.70
45044;DHT22;30784;48.490;9.688;2023-07-16T09:50:23;25.30;48.50
45044;DHT22;30784;48.490;9.688;2023-07-16T09:52:51;25.30;48.30
45044;DHT22;30784;48.490;9.688;2023-07-16T09:55:18;25.40;48.30
45044;DHT22;30784;48.490;9.688;2023-07-16T09:57:47;25.50;48.50
45044;DHT22;30784;48.490;9.688;2023-07-16T10:00:15;25.50;48.20
45044;DHT22;30784;48.490;9.688;2023-07-16T10:02:41;25.70;48.50
45044;DHT22;30784;48.490;9.688;2023-07-16T10:05:13;25.80;47.70
45044;DHT22;30784;48.490;9.688;2023-07-16T10:07:40;26.00;48.20
45044;DHT22;30784;48.490;9.688;2023-07-16T10:10:10;26.20;47.40
45044;DHT22;30784;48.490;9.688;2023-07-16T10:12:37;26.30;47.50
45044;DHT22;30784;48.490;9.688;2023-07-16T10:15:03;26.50;47.20
45044;DHT22;30784;48.490;9.688;2023-07-16T10:17:31;26.60;46.90
45044;DHT22;30784;48.490;9.688;2023-07-16T10:20:08;26.60;46.80
45044;DHT22;30784;48.490;9.688;2023-07-16T10:22:40;26.70;46.60
45044;DHT22;30784;48.490;9.688;2023-07-16T10:27:33;26.70;46.30
45044;DHT22;30784;48.490;9.688;2023-07-16T10:30:00;26.70;46.30
45044;DHT22;30784;48.490;9.688;2023-07-16T10:32:29;26.80;46.40
45044;DHT22;30784;48.490;9.688;2023-07-16T10:34:55;26.80;46.30
45044;DHT22;30784;48.490;9.688;2023-07-16T10:37:21;26.80;46.10
45044;DHT22;30784;48.490;9.688;2023-07-16T10:39:55;26.80;46.30
45044;DHT22;30784;48.490;9.688;2023-07-16T10:42:23;26.90;46.20
45044;DHT22;30784;48.490;9.688;2023-07-16T10:44:50;26.90;46.10
45044;DHT22;30784;48.490;9.688;2023-07-16T10:47:21;26.90;45.70
45044;DHT22;30784;48.490;9.688;2023-07-16T10:49:47;27.00;45.70
45044;DHT22;30784;48.490;9.688;2023-07-16T10:52:13;27.00;45.60
45044;DHT22;30784;48.490;9.688;2023-07-16T10:54:40;27.00;45.30
45044;DHT22;30784;48.490;9.688;2023-07-16T10:57:06;27.00;45.30
45044;DHT22;30784;48.490;9.688;2023-07-16T10:59:32;27.10;45.40
45044;DHT22;30784;48.490;9.688;2023-07-16T11:01:58;27.20;45.10
45044;DHT22;30784;48.490;9.688;2023-07-16T11:04:23;27.30;44.70
45044;DHT22;30784;48.490;9.688;2023-07-16T11:06:52;27.50;45.00
45044;DHT22;30784;48.490;9.688;2023-07-16T11:09:18;27.70;44.80
45044;DHT22;30784;48.490;9.688;2023-07-16T11:11:43;27.90;44.50
45044;DHT22;30784;48.490;9.688;2023-07-16T11:14:09;28.10;43.90
45044;DHT22;30784;48.490;9.688;2023-07-16T11:16:38;28.30;43.40
45044;DHT22;30784;48.490;9.688;2023-07-16T11:19:05;28.40;43.30
45044;DHT22;30784;48.490;9.688;2023-07-16T11:21:34;28.70;43.10
45044;DHT22;30784;48.490;9.688;2023-07-16T11:24:12;28.80;42.60
45044;DHT22;30784;48.490;9.688;2023-07-16T11:26:39;29.00;43.00
45044;DHT22;30784;48.490;9.688;2023-07-16T11:29:14;29.10;41.80
45044;DHT22;30784;48.490;9.688;2023-07-16T11:31:40;29.20;42.10
45044;DHT22;30784;48.490;9.688;2023-07-16T11:34:13;29.40;40.90
45044;DHT22;30784;48.490;9.688;2023-07-16T11:36:38;29.50;40.90
45044;DHT22;30784;48.490;9.688;2023-07-16T11:39:04;29.50;40.20
45044;DHT22;30784;48.490;9.688;2023-07-16T11:41:30;29.60;39.90
45044;DHT22;30784;48.490;9.688;2023-07-16T11:44:00;29.60;39.60
45044;DHT22;30784;48.490;9.688;2023-07-16T11:46:31;29.60;39.50
45044;DHT22;30784;48.490;9.688;2023-07-16T11:48:57;29.60;39.40
45044;DHT22;30784;48.490;9.688;2023-07-16T11:51:22;29.60;39.40
45044;DHT22;30784;48.490;9.688;2023-07-16T11:53:48;29.60;39.30
45044;DHT22;30784;48.490;9.688;2023-07-16T11:56:13;29.60;38.90
45044;DHT22;30784;48.490;9.688;2023-07-16T11:58:39;29.50;38.40
45044;DHT22;30784;48.490;9.688;2023-07-16T12:01:05;29.40;38.70
45044;DHT22;30784;48.490;9.688;2023-07-16T12:03:30;29.40;38.60
45044;DHT22;30784;48.490;9.688;2023-07-16T12:05:56;29.30;38.80
45044;DHT22;30784;48.490;9.688;2023-07-16T12:08:21;29.20;38.40
45044;DHT22;30784;48.490;9.688;2023-07-16T12:10:47;29.10;38.40
45044;DHT22;30784;48.490;9.688;2023-07-16T12:13:12;29.10;38.30
45044;DHT22;30784;48.490;9.688;2023-07-16T12:15:38;29.00;38.00
45044;DHT22;30784;48.490;9.688;2023-07-16T12:18:03;28.90;38.00
45044;DHT22;30784;48.490;9.688;2023-07-16T12:20:29;28.90;38.10
45044;DHT22;30784;48.490;9.688;2023-07-16T12:22:54;28.70;38.40
45044;DHT22;30784;48.490;9.688;2023-07-16T12:25:20;28.70;38.50
45044;DHT22;30784;48.490;9.688;2023-07-16T12:27:46;28.60;38.60
45044;DHT22;30784;48.490;9.688;2023-07-16T12:30:11;28.60;38.60
45044;DHT22;30784;48.490;9.688;2023-07-16T12:32:37;28.50;38.20
45044;DHT22;30784;48.490;9.688;2023-07-16T12:35:03;28.50;38.40
45044;DHT22;30784;48.490;9.688;2023-07-16T12:37:30;28.50;38.50
45044;DHT22;30784;48.490;9.688;2023-07-16T12:39:55;28.40;38.60
45044;DHT22;30784;48.490;9.688;2023-07-16T12:42:21;28.40;38.80
45044;DHT22;30784;48.490;9.688;2023-07-16T12:44:46;28.40;38.90
45044;DHT22;30784;48.490;9.688;2023-07-16T12:47:12;28.40;38.90
45044;DHT22;30784;48.490;9.688;2023-07-16T12:49:37;28.40;38.70
45044;DHT22;30784;48.490;9.688;2023-07-16T12:52:04;28.40;38.70
45044;DHT22;30784;48.490;9.688;2023-07-16T12:54:29;28.40;38.70
45044;DHT22;30784;48.490;9.688;2023-07-16T12:56:55;28.40;38.70
45044;DHT22;30784;48.490;9.688;2023-07-16T12:59:20;28.40;38.70
45044;DHT22;30784;48.490;9.688;2023-07-16T13:01:46;28.40;38.60
45044;DHT22;30784;48.490;9.688;2023-07-16T13:04:11;28.50;38.80
45044;DHT22;30784;48.490;9.688;2023-07-16T13:06:37;28.50;38.60
45044;DHT22;30784;48.490;9.688;2023-07-16T13:09:02;28.50;38.70
45044;DHT22;30784;48.490;9.688;2023-07-16T13:11:30;28.60;38.50
45044;DHT22;30784;48.490;9.688;2023-07-16T13:13:56;28.60;38.50
45044;DHT22;30784;48.490;9.688;2023-07-16T13:16:21;28.50;38.40
45044;DHT22;30784;48.490;9.688;2023-07-16T13:18:47;28.50;38.30
45044;DHT22;30784;48.490;9.688;2023-07-16T13:21:12;28.50;38.30
45044;DHT22;30784;48.490;9.688;2023-07-16T13:23:38;28.50;38.20
45044;DHT22;30784;48.490;9.688;2023-07-16T13:26:03;28.50;38.10
45044;DHT22;30784;48.490;9.688;2023-07-16T13:28:29;28.40;37.90
45044;DHT22;30784;48.490;9.688;2023-07-16T13:30:54;28.40;37.90
45044;DHT22;30784;48.490;9.688;2023-07-16T13:33:20;28.40;38.20
45044;DHT22;30784;48.490;9.688;2023-07-16T13:35:46;28.40;38.10
45044;DHT22;30784;48.490;9.688;2023-07-16T13:38:11;28.40;38.30
45044;DHT22;30784;48.490;9.688;2023-07-16T13:40:37;28.40;38.70
45044;DHT22;30784;48.490;9.688;2023-07-16T13:43:02;28.30;38.40
45044;DHT22;30784;48.490;9.688;2023-07-16T13:45:28;28.40;38.50
45044;DHT22;30784;48.490;9.688;2023-07-16T13:47:53;28.30;38.40
45044;DHT22;30784;48.490;9.688;2023-07-16T13:50:20;28.30;38.40
45044;DHT22;30784;48.490;9.688;2023-07-16T13:52:46;28.40;38.40
45044;DHT22;30784;48.490;9.688;2023-07-16T13:55:12;28.40;38.50
45044;DHT22;30784;48.490;9.688;2023-07-16T13:57:37;28.40;38.70
45044;DHT22;30784;48.490;9.688;2023-07-16T14:00:03;28.40;38.50
45044;DHT22;30784;48.490;9.688;2023-07-16T14:02:30;28.40;38.30
45044;DHT22;30784;48.490;9.688;2023-07-16T14:04:56;28.50;38.40
45044;DHT22;30784;48.490;9.688;2023-07-16T14:07:22;28.50;38.40
45044;DHT22;30784;48.490;9.688;2023-07-16T14:09:47;28.50;38.50
45044;DHT22;30784;48.490;9.688;2023-07-16T14:12:13;28.60;38.50
45044;DHT22;30784;48.490;9.688;2023-07-16T14:14:39;28.70;38.40
45044;DHT22;30784;48.490;9.688;2023-07-16T14:17:04;28.70;38.40
45044;DHT22;30784;48.490;9.688;2023-07-16T14:19:30;28.80;38.50
45044;DHT22;30784;48.490;9.688;2023-07-16T14:21:56;28.80;38.10
45044;DHT22;30784;48.490;9.688;2023-07-16T14:24:21;28.90;38.00
45044;DHT22;30784;48.490;9.688;2023-07-16T14:26:47;28.90;38.10
45044;DHT22;30784;48.490;9.688;2023-07-16T14:29:13;29.00;38.10
45044;DHT22;30784;48.490;9.688;2023-07-16T14:31:39;29.00;38.00
45044;DHT22;30784;48.490;9.688;2023-07-16T14:34:04;29.10;37.90
45044;DHT22;30784;48.490;9.688;2023-07-16T14:36:30;29.10;37.70
45044;DHT22;30784;48.490;9.688;2023-07-16T14:38:55;29.20;37.70
45044;DHT22;30784;48.490;9.688;2023-07-16T14:41:21;29.20;37.60
45044;DHT22;30784;48.490;9.688;2023-07-16T14:43:47;29.30;37.40
45044;DHT22;30784;48.490;9.688;2023-07-16T14:46:15;29.30;37.50
45044;DHT22;30784;48.490;9.688;2023-07-16T14:48:43;29.30;37.40
45044;DHT22;30784;48.490;9.688;2023-07-16T14:51:12;29.30;37.20
45044;DHT22;30784;48.490;9.688;2023-07-16T14:53:38;29.30;37.20
45044;DHT22;30784;48.490;9.688;2023-07-16T14:56:04;29.20;37.30
45044;DHT22;30784;48.490;9.688;2023-07-16T14:58:31;29.20;37.30
45044;DHT22;30784;48.490;9.688;2023-07-16T15:00:59;29.20;37.40
45044;DHT22;30784;48.490;9.688;2023-07-16T15:03:26;29.20;37.40
45044;DHT22;30784;48.490;9.688;2023-07-16T15:05:58;29.10;37.30
45044;DHT22;30784;48.490;9.688;2023-07-16T15:08:24;29.10;37.40
45044;DHT22;30784;48.490;9.688;2023-07-16T15:10:52;29.10;37.50
45044;DHT22;30784;48.490;9.688;2023-07-16T15:13:17;29.20;37.70
45044;DHT22;30784;48.490;9.688;2023-07-16T15:15:48;29.20;37.80
45044;DHT22;30784;48.490;9.688;2023-07-16T15:18:14;29.30;37.90
45044;DHT22;30784;48.490;9.688;2023-07-16T15:20:39;29.40;37.40
45044;DHT22;30784;48.490;9.688;2023-07-16T15:23:05;29.50;37.60
45044;DHT22;30784;48.490;9.688;2023-07-16T15:25:30;29.70;37.50
45044;DHT22;30784;48.490;9.688;2023-07-16T15:27:57;29.80;37.40
45044;DHT22;30784;48.490;9.688;2023-07-16T15:30:25;29.90;37.00
45044;DHT22;30784;48.490;9.688;2023-07-16T15:32:51;30.00;37.00
45044;DHT22;30784;48.490;9.688;2023-07-16T15:35:17;30.10;37.00
45044;DHT22;30784;48.490;9.688;2023-07-16T15:37:42;30.20;36.90